Terminal Aerodrome Forecast
Issued by NWS Miami, FL

Home | Current Version | Previous Version | Text Only | Print | Product List | Glossary On
Versions: 1 2 3 4 5 6 7 8 9 10 11 12 13 14 15 16 17 18 19 20 21 22 23 24 25 26 27
000
FTUS42 KMFL 221158 CCA
TAFFLL
TAF COR
KFLL 221158Z 2212/2312 14015G23KT P6SM VCSH SCT030 BKN060 BKN200
     FM221400 15015G25KT P6SM VCSH SCT020 BKN035 BKN050
     FM221600 15018G25KT 6SM SHRA VCTS SCT020CB OVC030
     FM222300 14012KT 6SM -SHRA SCT010 BKN030 OVC050
     FM230300 VRB04KT P6SM SCT030 BKN050 BKN100=

USA.gov is the U.S. government's official web portal to all federal, state and local government web resources and services.